Time;durP1;ratioP1;P1;durP2;ratioP2;P2;SDS_P1;SDS_P2;PMS_P1;PMS_P2;Temp;Humidity;BMP_temperature;BMP_pressure;BME280_temperature;BME280_humidity;BME280_pressure;Samples;Min_cycle;Max_cycle;Signal;HPM_P1;HPM_P2
2021/12/04 00:00:08;;;;;;;23.93;15.50;;;1.20;99.90;;;;;;5031868;28;20263;-91
2021/12/04 00:02:34;;;;;;;17.83;13.43;;;1.20;99.90;;;;;;5031876;28;20190;-90
2021/12/04 00:05:01;;;;;;;19.97;14.37;;;1.20;99.90;;;;;;5033171;28;20200;-92
2021/12/04 00:07:30;;;;;;;24.10;15.13;;;1.10;99.90;;;;;;5031981;28;20419;-92
2021/12/04 00:10:00;;;;;;;25.67;16.45;;;1.10;99.90;;;;;;5031849;28;20257;-91
2021/12/04 00:12:26;;;;;;;22.98;14.50;;;1.10;99.90;;;;;;5031863;28;20651;-90
2021/12/04 00:14:52;;;;;;;20.40;13.10;;;1.10;99.90;;;;;;5016376;28;20294;-92
2021/12/04 00:17:18;;;;;;;19.10;13.27;;;1.10;99.90;;;;;;5033466;28;20179;-91
2021/12/04 00:19:44;;;;;;;19.73;12.80;;;1.10;99.90;;;;;;5016125;28;20702;-91
2021/12/04 00:22:10;;;;;;;17.83;12.03;;;1.10;99.90;;;;;;5016345;28;20176;-91
2021/12/04 00:24:36;;;;;;;22.20;12.93;;;1.10;99.90;;;;;;5031656;28;20655;-92
2021/12/04 00:27:01;;;;;;;16.37;10.40;;;1.00;99.90;;;;;;5031603;28;20180;-92
2021/12/04 00:29:27;;;;;;;17.50;10.90;;;1.00;99.90;;;;;;4999086;28;20226;-90
2021/12/04 00:32:03;;;;;;;17.50;10.83;;;1.00;99.90;;;;;;5031858;28;20474;-92
2021/12/04 00:34:31;;;;;;;16.08;11.43;;;1.00;99.90;;;;;;5031434;28;20210;-92
2021/12/04 00:50:35;;;;;;;17.20;11.80;;;0.90;99.90;;;;;;5015781;28;20210;-91
2021/12/04 00:53:01;;;;;;;17.40;12.50;;;0.80;99.90;;;;;;5016832;28;20176;-91
2021/12/04 00:55:26;;;;;;;21.13;13.37;;;0.80;99.90;;;;;;5031205;28;21107;-91
2021/12/04 00:57:52;;;;;;;15.13;11.77;;;0.80;99.90;;;;;;5001547;28;20186;-91
2021/12/04 01:00:19;;;;;;;18.80;12.00;;;0.80;99.90;;;;;;5034821;28;20175;-90
2021/12/04 01:02:45;;;;;;;15.90;12.40;;;0.80;99.90;;;;;;5007713;28;20391;-90
2021/12/04 01:05:11;;;;;;;19.33;13.47;;;0.70;99.90;;;;;;5015421;28;20244;-90
2021/12/04 01:07:37;;;;;;;19.85;13.77;;;0.70;99.90;;;;;;5015155;28;20420;-90
2021/12/04 01:10:09;;;;;;;24.70;15.32;;;0.70;99.90;;;;;;5030818;28;20205;-91
2021/12/04 01:12:35;;;;;;;17.67;12.52;;;0.70;99.90;;;;;;5030916;28;20265;-91
2021/12/04 01:15:01;;;;;;;17.47;12.33;;;0.60;99.90;;;;;;5030664;28;20223;-90
2021/12/04 01:17:26;;;;;;;17.33;11.25;;;0.60;99.90;;;;;;5030620;28;20275;-91
2021/12/04 01:19:52;;;;;;;21.23;12.30;;;0.60;99.90;;;;;;5016143;28;20301;-90
2021/12/04 01:22:20;;;;;;;21.37;13.27;;;0.60;99.90;;;;;;5031148;28;20555;-91
2021/12/04 01:24:47;;;;;;;18.73;13.85;;;0.60;99.90;;;;;;5030533;28;20190;-91
2021/12/04 01:27:14;;;;;;;18.77;12.20;;;0.60;99.90;;;;;;4997781;28;20183;-90
2021/12/04 01:29:41;;;;;;;18.83;11.60;;;0.60;99.90;;;;;;5015238;28;20266;-90
2021/12/04 01:32:08;;;;;;;22.02;12.73;;;0.50;99.90;;;;;;5031622;28;20648;-90
2021/12/04 01:34:35;;;;;;;22.20;13.90;;;0.50;99.90;;;;;;4997647;28;20587;-91
2021/12/04 01:37:01;;;;;;;21.02;14.38;;;0.50;99.90;;;;;;4997732;28;20186;-90
2021/12/04 01:39:27;;;;;;;20.90;13.38;;;0.40;99.90;;;;;;5014850;28;20179;-90
2021/12/04 01:41:53;;;;;;;21.37;15.00;;;0.40;99.90;;;;;;5030526;28;20217;-91
2021/12/04 01:44:19;;;;;;;21.90;16.03;;;0.40;99.90;;;;;;5031266;28;20447;-90
2021/12/04 01:46:45;;;;;;;23.23;15.90;;;0.40;99.90;;;;;;5015812;28;20278;-91
2021/12/04 01:49:11;;;;;;;30.43;17.03;;;0.40;99.90;;;;;;5030425;28;20217;-92
2021/12/04 01:51:37;;;;;;;27.40;17.90;;;0.30;99.90;;;;;;4997760;28;20199;-89
2021/12/04 01:54:03;;;;;;;24.38;16.15;;;0.30;99.90;;;;;;5030169;28;20775;-90
2021/12/04 01:56:31;;;;;;;25.13;16.75;;;0.30;99.90;;;;;;5015454;28;20203;-90
2021/12/04 01:58:57;;;;;;;32.17;19.60;;;0.30;99.90;;;;;;5032364;28;20182;-91
2021/12/04 02:01:23;;;;;;;27.20;17.97;;;0.30;99.90;;;;;;5030464;28;20195;-90
2021/12/04 02:03:49;;;;;;;30.63;18.15;;;0.30;99.90;;;;;;5015105;28;20715;-91
2021/12/04 02:06:14;;;;;;;29.30;17.37;;;0.20;99.90;;;;;;5030330;28;20265;-91
2021/12/04 02:08:43;;;;;;;29.47;17.80;;;0.20;99.90;;;;;;4998549;28;20187;-90
2021/12/04 02:11:09;;;;;;;31.63;17.52;;;0.20;99.90;;;;;;5024789;28;20199;-91
2021/12/04 02:13:34;;;;;;;29.03;17.83;;;0.20;99.90;;;;;;5026740;28;20179;-90
2021/12/04 02:16:03;;;;;;;31.53;17.00;;;0.20;99.90;;;;;;4997086;28;20498;-91
2021/12/04 02:18:29;;;;;;;26.95;16.10;;;0.10;99.90;;;;;;5030471;28;20176;-91
2021/12/04 02:20:55;;;;;;;28.97;17.00;;;0.10;99.90;;;;;;5013127;28;20251;-91
2021/12/04 02:23:21;;;;;;;27.00;17.02;;;0.10;99.90;;;;;;5033905;28;20413;-90
2021/12/04 02:25:47;;;;;;;33.33;18.40;;;0.10;99.90;;;;;;5033940;28;20253;-91
2021/12/04 02:28:13;;;;;;;30.73;19.40;;;0.00;99.90;;;;;;5001427;28;20540;-90
2021/12/04 02:30:43;;;;;;;36.53;19.77;;;0.00;99.90;;;;;;5018098;28;20210;-90
2021/12/04 02:33:12;;;;;;;31.10;19.50;;;0.00;99.90;;;;;;5034047;28;20179;-90
2021/12/04 02:35:45;;;;;;;31.67;20.88;;;0.00;99.90;;;;;;5001760;28;20230;-90
2021/12/04 02:38:11;;;;;;;30.65;19.80;;;0.00;99.90;;;;;;5033920;28;20540;-90
2021/12/04 02:40:37;;;;;;;31.53;20.57;;;-0.10;99.90;;;;;;5021514;28;20203;-91
2021/12/04 02:43:04;;;;;;;31.00;18.57;;;-0.10;99.90;;;;;;5000981;28;20559;-90
2021/12/04 02:45:30;;;;;;;38.25;19.50;;;-0.10;99.90;;;;;;5033718;28;20487;-91
2021/12/04 02:47:56;;;;;;;35.17;20.40;;;-0.20;99.90;;;;;;5001271;28;20186;-91
2021/12/04 02:50:21;;;;;;;34.83;20.75;;;-0.20;99.90;;;;;;5033672;28;20207;-90
2021/12/04 02:52:47;;;;;;;32.70;20.17;;;-0.20;99.90;;;;;;5033710;28;20234;-91
2021/12/04 02:55:16;;;;;;;28.77;19.20;;;-0.30;99.90;;;;;;5033292;28;20504;-90
2021/12/04 02:57:44;;;;;;;35.92;21.15;;;-0.30;99.90;;;;;;5018180;28;20656;-91
2021/12/04 03:00:17;;;;;;;36.00;19.10;;;-0.30;99.90;;;;;;5037173;28;20207;-90
2021/12/04 03:02:44;;;;;;;30.70;19.70;;;-0.30;99.90;;;;;;5033418;28;20187;-92
2021/12/04 03:05:11;;;;;;;34.03;19.70;;;-0.40;99.90;;;;;;5017527;28;20202;-90
2021/12/04 03:07:36;;;;;;;28.27;17.60;;;-0.40;99.90;;;;;;5017633;28;20179;-90
2021/12/04 03:10:03;;;;;;;29.87;17.23;;;-0.40;99.90;;;;;;5033226;28;20199;-91
2021/12/04 03:12:29;;;;;;;35.92;19.95;;;-0.40;99.90;;;;;;5037228;28;20463;-91
2021/12/04 03:14:55;;;;;;;34.80;20.37;;;-0.40;99.90;;;;;;5036500;28;20218;-91
2021/12/04 03:17:23;;;;;;;36.20;19.10;;;-0.40;99.90;;;;;;5040460;28;20416;-91
2021/12/04 03:19:50;;;;;;;28.08;18.48;;;-0.40;99.90;;;;;;5033436;28;20432;-90
2021/12/04 03:22:17;;;;;;;31.13;18.92;;;-0.40;99.90;;;;;;5047702;28;20188;-91
2021/12/04 03:24:43;;;;;;;31.95;19.08;;;-0.40;99.90;;;;;;5048067;28;20179;-91
2021/12/04 03:27:11;;;;;;;30.30;19.40;;;-0.50;99.90;;;;;;5021044;28;20202;-90
2021/12/04 03:29:44;;;;;;;39.20;21.42;;;-0.50;99.90;;;;;;4999680;28;20179;-91
2021/12/04 03:42:40;;;;;;;26.05;16.10;;;-0.50;99.90;;;;;;5017298;28;20175;-90
2021/12/04 03:45:09;;;;;;;26.15;15.68;;;-0.60;99.90;;;;;;4997436;28;20208;-91
2021/12/04 03:47:39;;;;;;;23.75;14.98;;;-0.60;99.90;;;;;;4981565;28;20184;-90
2021/12/04 03:50:06;;;;;;;27.55;15.88;;;-0.60;99.90;;;;;;4997550;28;20235;-91
2021/12/04 03:52:32;;;;;;;19.10;14.35;;;-0.60;99.90;;;;;;4997155;28;20168;-90
2021/12/04 03:54:57;;;;;;;24.75;15.25;;;-0.70;99.90;;;;;;4979938;28;20254;-92
2021/12/04 03:57:23;;;;;;;28.63;15.73;;;-0.70;99.90;;;;;;4999341;28;20231;-92
2021/12/04 03:59:49;;;;;;;27.80;14.90;;;-0.80;99.90;;;;;;4980022;28;20202;-92
2021/12/04 04:02:17;;;;;;;24.00;14.67;;;-0.80;99.90;;;;;;4997024;28;20225;-91
2021/12/04 04:04:43;;;;;;;25.83;14.95;;;-0.80;99.90;;;;;;4996906;28;20413;-91
2021/12/04 04:07:09;;;;;;;24.77;14.30;;;-0.80;99.90;;;;;;4980117;28;20211;-91
2021/12/04 04:09:35;;;;;;;21.00;14.20;;;-0.90;99.90;;;;;;4998250;28;20187;-91
2021/12/04 04:12:02;;;;;;;23.23;14.98;;;-0.90;99.90;;;;;;4979931;28;20436;-90
2021/12/04 04:14:28;;;;;;;22.05;14.50;;;-0.90;99.90;;;;;;4997327;28;20203;-91
2021/12/04 04:16:56;;;;;;;25.73;16.15;;;-1.00;99.90;;;;;;4999183;28;20269;-90
2021/12/04 04:19:23;;;;;;;22.67;14.95;;;-1.00;99.90;;;;;;4981052;28;20208;-91
2021/12/04 04:21:55;;;;;;;24.67;16.65;;;-1.00;99.90;;;;;;5001817;28;20203;-91
2021/12/04 04:24:20;;;;;;;24.85;15.27;;;-1.00;99.90;;;;;;4993744;28;20172;-91
2021/12/04 04:26:46;;;;;;;22.20;15.43;;;-1.10;99.90;;;;;;5002173;28;20269;-90
2021/12/04 04:29:14;;;;;;;22.97;15.23;;;-1.00;99.90;;;;;;4979733;28;20175;-91
2021/12/04 04:31:49;;;;;;;25.08;15.75;;;-1.10;99.90;;;;;;4978984;28;20461;-90
2021/12/04 04:34:24;;;;;;;21.85;14.98;;;-1.00;99.90;;;;;;4979394;28;20231;-90
2021/12/04 04:37:13;;;;;;;25.67;16.23;;;-1.00;99.90;;;;;;4979568;28;20211;-90
2021/12/04 05:13:05;;;;;;;33.60;20.45;;;-1.40;99.90;;;;;;4975235;28;20630;-91
2021/12/04 05:18:23;;;;;;;53.10;34.95;;;-1.50;99.90;;;;;;5002368;28;20218;-91
2021/12/04 05:20:53;;;;;;;48.28;29.88;;;-1.50;99.90;;;;;;5013569;28;20207;-92
2021/12/04 05:23:22;;;;;;;62.65;35.88;;;-1.50;99.90;;;;;;4999196;28;20625;-90
2021/12/04 05:25:50;;;;;;;57.45;33.47;;;-1.60;99.90;;;;;;5015373;28;20214;-90
2021/12/04 05:28:17;;;;;;;70.78;37.33;;;-1.60;99.90;;;;;;5032460;28;20179;-91
2021/12/04 05:30:44;;;;;;;60.97;36.35;;;-1.50;99.90;;;;;;4998274;28;20206;-92
2021/12/04 05:33:09;;;;;;;74.25;36.90;;;-1.50;99.90;;;;;;5031032;28;20601;-91
2021/12/04 05:35:35;;;;;;;60.97;37.37;;;-1.50;99.90;;;;;;4997490;28;20223;-91
2021/12/04 05:38:01;;;;;;;64.43;38.33;;;-1.50;99.90;;;;;;5030641;28;20179;-90
2021/12/04 05:40:27;;;;;;;64.60;39.97;;;-1.60;99.90;;;;;;5032600;28;20973;-91
2021/12/04 05:43:00;;;;;;;66.70;41.20;;;-1.60;99.90;;;;;;5030398;28;20175;-90
2021/12/04 05:45:27;;;;;;;79.32;47.70;;;-1.50;99.90;;;;;;4997630;28;20862;-91
2021/12/04 05:53:21;;;;;;;81.38;47.63;;;-1.50;99.90;;;;;;5015093;28;20187;-90
2021/12/04 05:55:55;;;;;;;67.05;41.28;;;-1.50;99.90;;;;;;5034615;28;20582;-90
2021/12/04 05:58:27;;;;;;;58.25;34.40;;;-1.60;99.90;;;;;;5034747;28;20214;-90
2021/12/04 06:00:54;;;;;;;50.83;31.92;;;-1.60;99.90;;;;;;5018943;28;20199;-92
2021/12/04 06:03:20;;;;;;;74.28;38.80;;;-1.60;99.90;;;;;;5034751;28;20198;-90
2021/12/04 06:05:45;;;;;;;86.53;44.10;;;-1.60;99.90;;;;;;5035494;28;20195;-91
2021/12/04 06:08:12;;;;;;;79.20;45.90;;;-1.60;99.90;;;;;;5037182;28;20413;-92
2021/12/04 06:10:38;;;;;;;69.85;43.92;;;-1.70;99.90;;;;;;5039292;28;20202;-91
2021/12/04 06:13:03;;;;;;;76.70;44.10;;;-1.70;99.90;;;;;;5011525;28;20580;-91
2021/12/04 06:15:29;;;;;;;78.53;44.03;;;-1.70;99.90;;;;;;5019939;28;20269;-92
2021/12/04 06:17:55;;;;;;;92.90;49.63;;;-1.70;99.90;;;;;;5025092;28;20202;-92
2021/12/04 06:23:06;;;;;;;118.28;72.30;;;-1.70;99.90;;;;;;5018557;28;20229;-92
2021/12/04 06:25:32;;;;;;;95.90;57.72;;;-1.70;99.90;;;;;;5018635;28;20195;-92
2021/12/04 06:27:58;;;;;;;88.13;54.67;;;-1.60;99.90;;;;;;5034994;28;20179;-90
2021/12/04 06:30:25;;;;;;;80.33;49.77;;;-1.60;99.90;;;;;;5033691;28;20668;-90
2021/12/04 06:32:53;;;;;;;76.70;44.10;;;-1.60;99.90;;;;;;5018349;28;20401;-90
2021/12/04 06:35:21;;;;;;;83.82;47.13;;;-1.60;99.90;;;;;;5033736;28;20259;-89
2021/12/04 06:37:50;;;;;;;83.47;48.45;;;-1.50;99.90;;;;;;5033613;28;20649;-92
2021/12/04 06:40:18;;;;;;;77.00;44.58;;;-1.50;99.90;;;;;;5018297;28;20208;-90
2021/12/04 06:42:45;;;;;;;74.53;44.47;;;-1.50;99.90;;;;;;5000911;28;20242;-90
2021/12/04 06:45:12;;;;;;;80.95;50.17;;;-1.50;99.90;;;;;;5000429;28;20203;-90
2021/12/04 06:47:40;;;;;;;79.75;49.10;;;-1.50;99.90;;;;;;5017750;28;20179;-90
2021/12/04 06:50:17;;;;;;;80.85;46.42;;;-1.40;99.90;;;;;;5033467;28;20207;-92
2021/12/04 06:52:45;;;;;;;89.78;50.08;;;-1.40;99.90;;;;;;5000714;28;20197;-90
2021/12/04 06:55:14;;;;;;;62.55;39.75;;;-1.30;99.90;;;;;;5033942;28;20254;-90
2021/12/04 06:57:40;;;;;;;52.40;33.30;;;-1.20;99.90;;;;;;5033226;28;20179;-90
2021/12/04 07:00:10;;;;;;;45.25;31.48;;;-1.10;99.90;;;;;;5000394;28;20265;-91
2021/12/04 07:02:36;;;;;;;46.40;32.30;;;-1.00;99.90;;;;;;5017951;28;20167;-90
2021/12/04 07:05:03;;;;;;;68.07;41.37;;;-0.90;99.90;;;;;;5033131;28;20260;-92
2021/12/04 07:07:28;;;;;;;67.07;37.47;;;-0.80;99.90;;;;;;5020211;28;20174;-91
2021/12/04 07:09:54;;;;;;;57.27;34.30;;;-0.70;99.90;;;;;;5018951;28;20202;-92
2021/12/04 07:12:20;;;;;;;67.97;36.23;;;-0.60;99.90;;;;;;5040313;28;20390;-89
2021/12/04 07:14:46;;;;;;;59.17;35.23;;;-0.50;99.90;;;;;;5048776;28;20474;-92
2021/12/04 07:17:11;;;;;;;58.03;38.07;;;-0.40;99.90;;;;;;5052987;28;20199;-90
2021/12/04 07:19:37;;;;;;;65.00;39.53;;;-0.40;99.90;;;;;;5034663;28;20402;-90
2021/12/04 07:22:03;;;;;;;68.17;39.77;;;-0.30;99.90;;;;;;5017692;28;20617;-92
2021/12/04 07:24:32;;;;;;;60.65;36.50;;;-0.20;99.90;;;;;;5018637;28;20221;-92
2021/12/04 07:26:58;;;;;;;66.43;40.47;;;-0.20;99.90;;;;;;5017679;28;20183;-90
2021/12/04 07:29:24;;;;;;;54.00;36.97;;;-0.10;99.90;;;;;;5033089;28;20234;-92
2021/12/04 07:31:51;;;;;;;49.00;34.33;;;0.00;99.90;;;;;;5017857;28;20290;-91
2021/12/04 07:34:16;;;;;;;44.50;30.60;;;0.30;99.90;;;;;;5017165;28;20217;-92
2021/12/04 07:36:42;;;;;;;55.30;35.23;;;0.70;99.90;;;;;;5018005;28;20199;-91
2021/12/04 07:39:08;;;;;;;47.40;33.33;;;1.30;99.90;;;;;;5032609;28;20175;-90
2021/12/04 07:41:38;;;;;;;48.37;32.83;;;1.90;99.90;;;;;;4999735;28;20210;-91
2021/12/04 07:44:08;;;;;;;42.97;31.00;;;2.70;99.90;;;;;;4999793;28;20322;-90
2021/12/04 07:46:35;;;;;;;48.63;37.72;;;3.50;99.90;;;;;;5000284;28;20289;-92
2021/12/04 07:49:01;;;;;;;77.63;51.45;;;4.10;99.90;;;;;;5004879;28;20220;-92
2021/12/04 07:51:27;;;;;;;55.00;43.23;;;4.80;99.90;;;;;;5014441;28;20206;-92
2021/12/04 07:53:52;;;;;;;58.20;41.87;;;5.60;99.90;;;;;;5031331;28;20183;-92
2021/12/04 07:56:18;;;;;;;39.33;28.97;;;6.30;99.90;;;;;;5030144;28;20253;-91
2021/12/04 07:58:44;;;;;;;37.10;25.80;;;7.00;99.90;;;;;;5014295;28;20314;-91
2021/12/04 08:01:10;;;;;;;29.47;23.03;;;7.60;99.90;;;;;;5002599;28;20218;-92
2021/12/04 08:03:36;;;;;;;35.85;23.77;;;8.00;99.90;;;;;;5016153;28;20183;-90
2021/12/04 08:06:02;;;;;;;37.25;26.25;;;8.30;99.90;;;;;;5037471;28;20222;-92
2021/12/04 08:08:28;;;;;;;41.70;27.23;;;8.40;99.90;;;;;;5020538;28;20282;-91
2021/12/04 08:10:53;;;;;;;34.90;26.43;;;8.30;99.90;;;;;;5019234;28;20246;-92
2021/12/04 08:13:19;;;;;;;33.70;25.67;;;8.30;99.90;;;;;;5035269;28;20174;-91
2021/12/04 08:15:45;;;;;;;28.87;21.00;;;8.20;99.90;;;;;;5018434;28;20245;-92
2021/12/04 08:18:11;;;;;;;26.88;19.85;;;8.10;99.90;;;;;;5018442;28;20538;-91
2021/12/04 08:20:37;;;;;;;27.10;20.37;;;7.90;99.90;;;;;;5018252;28;20199;-92
2021/12/04 08:23:04;;;;;;;26.50;19.85;;;7.70;99.90;;;;;;5018699;28;20179;-92
2021/12/04 08:25:31;;;;;;;26.58;20.38;;;7.60;99.90;;;;;;5018646;28;20203;-90
2021/12/04 08:27:58;;;;;;;26.30;20.08;;;7.60;99.90;;;;;;5039278;28;20278;-91
2021/12/04 08:30:26;;;;;;;26.05;20.20;;;7.50;99.90;;;;;;5024898;28;20684;-90
2021/12/04 08:32:54;;;;;;;25.63;20.35;;;7.50;99.90;;;;;;5035092;28;20181;-91
2021/12/04 08:35:23;;;;;;;25.17;18.25;;;7.70;99.90;;;;;;5017920;28;20222;-90
2021/12/04 08:37:50;;;;;;;31.52;20.50;;;8.10;99.90;;;;;;5018082;28;20179;-92
2021/12/04 08:40:17;;;;;;;25.52;19.45;;;8.20;99.90;;;;;;5017999;28;20789;-93
2021/12/04 08:42:45;;;;;;;25.55;18.83;;;8.30;99.90;;;;;;5017091;28;20179;-92
2021/12/04 08:45:13;;;;;;;27.73;21.38;;;8.40;99.90;;;;;;4998243;28;20207;-91
2021/12/04 08:47:39;;;;;;;23.45;19.00;;;8.50;99.90;;;;;;4998812;28;20183;-92
2021/12/04 08:50:12;;;;;;;25.02;17.67;;;8.70;99.90;;;;;;4998738;28;20207;-92
2021/12/04 08:52:38;;;;;;;25.45;17.27;;;8.80;99.90;;;;;;4998572;28;20517;-92
2021/12/04 08:55:05;;;;;;;24.98;17.80;;;8.70;99.90;;;;;;5015606;28;20674;-90
2021/12/04 08:57:31;;;;;;;26.77;18.20;;;8.80;99.90;;;;;;4998509;28;20238;-91
2021/12/04 08:59:57;;;;;;;23.23;18.30;;;9.20;99.90;;;;;;5007464;28;20203;-92
2021/12/04 09:02:23;;;;;;;23.87;19.33;;;9.50;99.90;;;;;;5015564;28;20640;-91
2021/12/04 09:04:50;;;;;;;21.90;17.45;;;9.60;99.90;;;;;;4997595;28;20201;-91
2021/12/04 09:07:18;;;;;;;20.05;15.82;;;9.40;99.90;;;;;;4996233;28;20214;-91
2021/12/04 09:09:47;;;;;;;20.90;15.43;;;9.30;99.90;;;;;;5013432;28;20258;-91
2021/12/04 09:12:14;;;;;;;23.10;16.33;;;9.10;99.90;;;;;;4997024;28;20180;-92
2021/12/04 09:14:43;;;;;;;27.50;18.90;;;8.90;99.90;;;;;;5018003;28;20269;-91
2021/12/04 09:17:12;;;;;;;22.08;18.70;;;8.90;99.90;;;;;;5006659;28;20175;-90
2021/12/04 09:19:39;;;;;;;22.20;17.63;;;8.90;99.90;;;;;;4997613;28;20228;-91
2021/12/04 09:22:14;;;;;;;20.77;15.80;;;8.80;99.90;;;;;;5014450;28;20579;-91
2021/12/04 09:24:42;;;;;;;20.00;15.82;;;9.00;99.90;;;;;;4996908;28;20201;-91
2021/12/04 10:00:00;;;;;;;28.30;20.35;;;10.80;99.90;;;;;;5034134;28;20634;-91
2021/12/04 10:16:41;;;;;;;18.33;12.70;;;9.90;99.90;;;;;;5043473;28;20249;-91
2021/12/04 10:24:59;;;;;;;27.67;22.10;;;9.30;99.90;;;;;;5034971;28;20171;-91
2021/12/04 10:33:10;;;;;;;21.55;15.45;;;8.80;99.90;;;;;;5028022;28;20510;-91
2021/12/04 10:35:36;;;;;;;27.58;19.45;;;8.60;99.90;;;;;;5031194;28;20215;-91
2021/12/04 10:38:05;;;;;;;30.55;23.98;;;8.40;99.90;;;;;;5015789;28;20174;-91
2021/12/04 10:40:44;;;;;;;30.15;21.17;;;8.30;99.90;;;;;;5036637;28;20194;-90
2021/12/04 10:43:16;;;;;;;29.05;20.50;;;8.30;99.90;;;;;;5037918;28;20222;-92
2021/12/04 10:45:49;;;;;;;27.30;18.38;;;8.10;99.90;;;;;;5053611;28;20213;-92
2021/12/04 10:48:23;;;;;;;34.28;26.27;;;8.00;99.90;;;;;;5053193;28;20167;-90
2021/12/04 10:53:35;;;;;;;34.00;24.05;;;7.70;99.90;;;;;;5038091;28;20166;-91
2021/12/04 11:01:50;;;;;;;36.45;24.65;;;7.30;99.90;;;;;;5018747;28;20211;-91
2021/12/04 11:04:32;;;;;;;33.08;24.95;;;7.10;99.90;;;;;;5054605;28;20186;-91
2021/12/04 11:07:57;;;;;;;38.55;24.65;;;7.00;99.90;;;;;;5056551;28;20186;-91
2021/12/04 11:26:40;;;;;;;26.98;19.08;;;6.40;99.90;;;;;;5037619;28;20202;-91
2021/12/04 11:42:58;;;;;;;31.90;20.90;;;6.30;99.90;;;;;;5037124;28;20163;-92
2021/12/04 11:45:33;;;;;;;30.77;20.23;;;6.30;99.90;;;;;;5021814;28;20225;-90
2021/12/04 11:48:02;;;;;;;25.10;19.67;;;6.30;99.90;;;;;;5019789;28;20584;-91
2021/12/04 11:50:35;;;;;;;23.80;17.38;;;6.30;99.90;;;;;;5052476;28;20212;-91
2021/12/04 11:53:04;;;;;;;29.70;18.95;;;6.30;99.90;;;;;;5035986;28;20175;-90
2021/12/04 11:55:33;;;;;;;28.92;17.83;;;6.30;99.90;;;;;;5052064;28;20821;-90
2021/12/04 11:58:00;;;;;;;25.40;18.20;;;6.30;99.90;;;;;;5052221;28;20182;-90
2021/12/04 12:00:32;;;;;;;27.65;16.92;;;6.30;99.90;;;;;;5037072;28;20564;-91
2021/12/04 12:03:10;;;;;;;24.70;18.70;;;6.20;99.90;;;;;;5036588;28;20170;-88
2021/12/04 12:05:45;;;;;;;24.65;16.08;;;6.20;99.90;;;;;;5051956;28;20199;-89
2021/12/04 12:08:24;;;;;;;27.63;18.58;;;6.20;99.90;;;;;;5052027;28;20170;-89
2021/12/04 12:10:54;;;;;;;25.67;19.33;;;6.20;99.90;;;;;;5035982;28;20329;-89
2021/12/04 12:13:34;;;;;;;25.02;18.10;;;6.10;99.90;;;;;;5054185;28;20175;-89
2021/12/04 12:16:09;;;;;;;27.63;18.25;;;6.10;99.90;;;;;;5047887;28;20718;-89
2021/12/04 12:18:50;;;;;;;24.98;18.65;;;6.20;99.90;;;;;;5051915;28;20166;-91
2021/12/04 12:21:21;;;;;;;22.55;16.20;;;6.20;99.90;;;;;;5018661;28;20297;-92
2021/12/04 12:24:12;;;;;;;18.95;14.63;;;6.30;99.90;;;;;;5054482;28;20229;-92
2021/12/04 12:26:48;;;;;;;20.42;13.30;;;6.40;99.90;;;;;;5037243;28;20212;-91
2021/12/04 12:37:51;;;;;;;16.63;14.13;;;6.40;99.90;;;;;;5039045;28;20170;-91
2021/12/04 12:40:19;;;;;;;16.88;13.40;;;6.40;99.90;;;;;;5055182;28;20202;-91
2021/12/04 12:42:46;;;;;;;19.73;13.85;;;6.40;99.90;;;;;;5040587;28;20190;-92
2021/12/04 12:45:32;;;;;;;20.90;15.10;;;6.30;99.90;;;;;;5051368;28;20215;-91
2021/12/04 12:48:01;;;;;;;20.38;16.40;;;6.30;99.90;;;;;;5018224;28;20560;-91
2021/12/04 12:50:42;;;;;;;15.35;12.55;;;6.20;99.90;;;;;;5019960;28;20202;-91
2021/12/04 12:53:13;;;;;;;26.00;19.85;;;6.20;99.90;;;;;;5018090;28;20229;-91
2021/12/04 12:55:40;;;;;;;26.27;17.67;;;6.10;99.90;;;;;;5035571;28;20245;-92
2021/12/04 12:58:29;;;;;;;40.08;29.15;;;6.10;99.90;;;;;;5051098;28;20210;-92
2021/12/04 13:12:11;;;;;;;19.75;13.13;;;5.80;99.90;;;;;;5020873;28;20201;-92
2021/12/04 13:14:40;;;;;;;13.00;10.43;;;5.90;99.90;;;;;;5050638;28;20213;-92
2021/12/04 13:17:12;;;;;;;17.55;11.05;;;5.90;99.90;;;;;;5052401;28;20182;-92
2021/12/04 13:19:40;;;;;;;15.75;10.38;;;5.90;99.90;;;;;;5050512;28;20183;-91
2021/12/04 13:22:13;;;;;;;19.67;13.70;;;5.90;99.90;;;;;;5051788;28;20182;-92
2021/12/04 13:24:41;;;;;;;18.05;10.80;;;5.90;99.90;;;;;;5052749;28;20200;-93
2021/12/04 13:29:40;;;;;;;16.27;11.75;;;5.90;99.90;;;;;;5045848;28;20170;-91
2021/12/04 13:32:08;;;;;;;18.98;12.55;;;5.90;99.90;;;;;;5039177;28;20261;-88
2021/12/04 13:34:36;;;;;;;19.52;13.75;;;5.90;99.90;;;;;;5050100;28;20206;-90
2021/12/04 13:37:04;;;;;;;15.18;11.07;;;5.90;99.90;;;;;;5034835;28;20166;-89
2021/12/04 13:39:30;;;;;;;17.60;10.43;;;5.90;99.90;;;;;;5050216;28;20182;-89
2021/12/04 13:41:56;;;;;;;15.40;11.38;;;5.90;99.90;;;;;;5050344;28;20268;-90
2021/12/04 13:44:25;;;;;;;15.57;10.93;;;6.00;99.90;;;;;;5035669;28;20691;-88
2021/12/04 13:47:02;;;;;;;20.50;11.68;;;6.00;99.90;;;;;;5050462;28;20537;-92
2021/12/04 13:49:53;;;;;;;20.40;12.75;;;6.10;99.90;;;;;;5050536;28;20189;-92
2021/12/04 13:52:19;;;;;;;38.25;19.52;;;6.10;99.90;;;;;;5050268;28;20273;-92
2021/12/04 13:54:55;;;;;;;28.60;16.80;;;6.20;99.90;;;;;;5017189;28;20293;-92
2021/12/04 13:57:21;;;;;;;22.58;13.80;;;6.30;99.90;;;;;;5051752;28;20189;-92
2021/12/04 13:59:47;;;;;;;16.83;10.57;;;6.40;99.90;;;;;;5050315;28;20183;-91
2021/12/04 14:02:25;;;;;;;17.10;12.70;;;6.60;99.90;;;;;;5050169;28;20269;-91
2021/12/04 14:04:56;;;;;;;16.50;10.52;;;6.80;99.90;;;;;;5034631;28;20255;-93
2021/12/04 14:07:22;;;;;;;17.40;10.27;;;7.00;99.90;;;;;;5034518;28;20175;-90
2021/12/04 14:09:47;;;;;;;14.20;10.90;;;7.10;99.90;;;;;;5051926;28;20548;-90
2021/12/04 14:12:13;;;;;;;14.70;11.50;;;7.20;99.90;;;;;;5035247;28;20178;-89
2021/12/04 14:14:39;;;;;;;17.10;12.67;;;7.20;99.90;;;;;;5054129;28;20210;-90
2021/12/04 14:17:09;;;;;;;21.17;14.13;;;7.00;99.90;;;;;;5058511;28;20410;-88
2021/12/04 14:19:36;;;;;;;18.02;13.82;;;6.90;99.90;;;;;;5071187;28;20188;-89
2021/12/04 14:22:15;;;;;;;15.48;12.27;;;6.80;99.90;;;;;;5057781;28;20293;-89
2021/12/04 14:24:45;;;;;;;19.33;13.82;;;6.60;99.90;;;;;;5021565;28;20178;-91
2021/12/04 14:27:16;;;;;;;22.77;14.82;;;6.40;99.90;;;;;;5053858;28;20185;-92
2021/12/04 14:29:46;;;;;;;19.40;14.25;;;6.20;99.90;;;;;;5053940;28;20171;-92
2021/12/04 14:32:16;;;;;;;17.60;13.35;;;6.10;99.90;;;;;;5053814;28;20640;-92
2021/12/04 14:34:42;;;;;;;16.30;14.45;;;5.90;99.90;;;;;;5053781;28;20217;-92
2021/12/04 14:37:13;;;;;;;21.95;14.60;;;5.80;99.90;;;;;;5056713;28;20183;-90
2021/12/04 14:39:45;;;;;;;21.00;16.55;;;5.70;99.90;;;;;;5053643;28;20171;-91
2021/12/04 14:42:16;;;;;;;21.63;17.48;;;5.60;99.90;;;;;;5053694;28;20202;-92
2021/12/04 14:44:48;;;;;;;32.53;22.90;;;5.50;99.90;;;;;;5053307;28;20718;-91
2021/12/04 14:47:14;;;;;;;35.90;29.23;;;5.40;99.90;;;;;;5053391;28;20554;-91
2021/12/04 14:49:43;;;;;;;73.03;37.78;;;5.30;99.90;;;;;;5021632;28;20589;-91
2021/12/04 14:52:09;;;;;;;61.45;26.13;;;5.20;99.90;;;;;;5053860;28;20182;-91
2021/12/04 14:54:38;;;;;;;55.43;26.53;;;5.20;99.90;;;;;;5055343;28;20210;-91
2021/12/04 14:57:14;;;;;;;34.40;16.45;;;5.10;99.90;;;;;;5053442;28;20416;-92
2021/12/04 14:59:40;;;;;;;26.00;13.77;;;5.00;99.90;;;;;;5048211;28;20252;-93
2021/12/04 15:02:20;;;;;;;24.57;15.30;;;5.00;99.90;;;;;;5037242;28;20192;-91
2021/12/04 15:04:46;;;;;;;122.03;41.42;;;4.90;99.90;;;;;;5048965;28;20418;-91
2021/12/04 15:07:25;;;;;;;142.77;47.10;;;4.80;99.90;;;;;;5050446;28;20213;-92
2021/12/04 15:09:51;;;;;;;57.63;31.35;;;4.80;99.90;;;;;;5053449;28;20198;-91
2021/12/04 15:12:34;;;;;;;64.63;33.40;;;4.70;99.90;;;;;;5053413;28;20191;-91
2021/12/04 15:15:07;;;;;;;47.53;26.60;;;4.60;99.90;;;;;;5019751;28;20222;-92
2021/12/04 15:17:34;;;;;;;134.80;59.00;;;4.60;99.90;;;;;;5021278;28;20214;-91
2021/12/04 15:20:09;;;;;;;158.07;64.57;;;4.60;99.90;;;;;;5019783;28;20229;-93
2021/12/04 15:22:38;;;;;;;187.18;74.75;;;4.50;99.90;;;;;;5019667;28;20178;-90
2021/12/04 15:25:10;;;;;;;175.73;75.03;;;4.50;99.90;;;;;;5019402;28;20205;-92
2021/12/04 15:27:36;;;;;;;72.32;42.42;;;4.40;99.90;;;;;;5036612;28;20638;-90
2021/12/04 15:30:06;;;;;;;54.65;31.33;;;4.40;99.90;;;;;;5040546;28;20290;-93
2021/12/04 15:32:34;;;;;;;32.28;22.15;;;4.30;99.90;;;;;;5039168;28;20178;-91
2021/12/04 15:35:11;;;;;;;29.75;19.77;;;4.20;99.90;;;;;;5020273;28;20233;-92
2021/12/04 15:37:49;;;;;;;29.77;21.00;;;4.20;99.90;;;;;;5052637;28;20552;-92
2021/12/04 15:40:49;;;;;;;35.88;24.20;;;4.10;99.90;;;;;;5052565;28;20742;-91
2021/12/04 15:43:27;;;;;;;39.05;25.63;;;4.10;99.90;;;;;;5051834;28;20276;-91
2021/12/04 15:46:12;;;;;;;35.30;26.40;;;4.00;99.90;;;;;;5052975;28;20199;-91
2021/12/04 15:52:44;;;;;;;36.53;24.75;;;3.90;99.90;;;;;;5041896;28;20252;-92